Time;durP1;ratioP1;P1;durP2;ratioP2;P2;SDS_P1;SDS_P2;PMS_P1;PMS_P2;Temp;Humidity;BMP_temperature;BMP_pressure;BME280_temperature;BME280_humidity;BME280_pressure;Samples;Min_cycle;Max_cycle;Signal;HPM_P1;HPM_P2
2022/09/01 00:00:52;;;;;;;;;9.00;9.00;;;;;24.07;47.44;101083.97;5126114;27;45741;-68
2022/09/01 00:03:22;;;;;;;;;10.67;10.33;;;;;24.17;47.34;101100.13;5125952;27;44999;-68
2022/09/01 00:05:52;;;;;;;;;12.33;9.33;;;;;24.16;47.67;101103.81;5116718;27;44901;-67
2022/09/01 00:08:18;;;;;;;;;9.67;9.67;;;;;24.14;47.64;101101.09;5114178;27;45143;-66
2022/09/01 00:10:44;;;;;;;;;11.67;10.33;;;;;24.15;47.78;101104.72;5121748;27;45062;-68
2022/09/01 00:13:09;;;;;;;;;11.33;9.33;;;;;24.13;47.31;101095.69;5122282;27;45037;-68
2022/09/01 00:15:35;;;;;;;;;11.00;9.33;;;;;24.06;47.76;101095.81;5115211;27;45144;-68
2022/09/01 00:18:01;;;;;;;;;9.33;9.33;;;;;24.13;47.89;101098.41;5115711;27;44943;-66
2022/09/01 00:20:28;;;;;;;;;10.67;9.00;;;;;24.12;47.63;101091.16;5119944;27;45247;-67
2022/09/01 00:22:54;;;;;;;;;11.33;10.67;;;;;24.00;47.34;101071.41;5113940;27;45148;-67
2022/09/01 00:25:20;;;;;;;;;9.00;9.00;;;;;24.07;47.62;101078.53;5130946;27;45620;-68
2022/09/01 00:27:47;;;;;;;;;15.67;10.00;;;;;23.97;47.64;101057.81;5125755;27;45220;-68
2022/09/01 00:30:13;;;;;;;;;10.00;8.00;;;;;23.81;48.14;101024.53;5122518;27;45222;-68
2022/09/01 00:32:38;;;;;;;;;9.67;9.67;;;;;24.10;48.12;101089.38;5119637;27;49267;-67
2022/09/01 00:35:04;;;;;;;;;9.33;9.33;;;;;24.07;47.94;101081.25;5120088;27;45224;-67
2022/09/01 00:37:30;;;;;;;;;11.00;9.00;;;;;24.06;48.43;101082.19;5116195;27;45107;-68
2022/09/01 00:39:55;;;;;;;;;12.33;10.00;;;;;23.94;48.38;101071.56;5120682;27;45249;-67
2022/09/01 00:42:21;;;;;;;;;8.33;8.33;;;;;23.99;48.38;101091.47;5123204;27;45260;-68
2022/09/01 00:44:46;;;;;;;;;11.33;10.33;;;;;23.91;48.53;101079.81;5121478;27;45187;-69
2022/09/01 00:47:12;;;;;;;;;11.33;10.33;;;;;23.95;48.51;101084.25;5113454;27;45206;-68
2022/09/01 00:49:42;;;;;;;;;12.33;11.00;;;;;23.87;48.49;101070.81;5117930;27;44976;-66
2022/09/01 00:52:20;;;;;;;;;11.00;8.67;;;;;23.95;48.28;101087.00;5115545;27;44966;-68
2022/09/01 00:54:51;;;;;;;;;14.33;12.67;;;;;23.92;48.29;101084.31;5116137;27;44995;-67
2022/09/01 00:57:17;;;;;;;;;16.33;11.00;;;;;23.88;48.75;101088.97;5131450;27;45010;-68
2022/09/01 00:59:48;;;;;;;;;11.67;10.67;;;;;23.76;48.78;101061.03;5114478;27;45556;-67
2022/09/01 01:02:14;;;;;;;;;10.00;10.00;;;;;23.78;48.80;101079.16;5113242;27;45023;-67
2022/09/01 01:04:42;;;;;;;;;13.67;9.33;;;;;23.83;48.63;101084.56;5115180;27;45180;-68
2022/09/01 01:07:09;;;;;;;;;11.33;9.67;;;;;23.82;48.91;101080.00;5119556;27;45096;-67
2022/09/01 01:09:40;;;;;;;;;11.33;11.33;;;;;23.79;48.62;101071.88;5119109;27;45241;-66
2022/09/01 01:12:07;;;;;;;;;10.00;8.33;;;;;23.74;48.83;101067.44;5118691;27;45037;-67
2022/09/01 01:14:35;;;;;;;;;13.67;13.00;;;;;23.72;49.11;101072.00;5120949;27;45683;-66
2022/09/01 01:17:01;;;;;;;;;14.33;9.33;;;;;23.70;49.23;101078.44;5124740;27;45296;-66
2022/09/01 01:23:02;;;;;;;;;9.00;8.33;;;;;23.62;49.20;101054.06;5114922;27;45145;-66
2022/09/01 01:25:40;;;;;;;;;14.00;12.00;;;;;23.64;49.32;101065.88;5113713;27;45053;-68
2022/09/01 01:28:10;;;;;;;;;12.33;10.67;;;;;23.64;49.67;101067.66;5125882;27;45109;-66
2022/09/01 01:30:38;;;;;;;;;10.67;10.33;;;;;23.52;49.82;101049.75;5116890;27;46109;-68
2022/09/01 01:33:04;;;;;;;;;10.00;9.33;;;;;23.53;49.27;101046.13;5120145;27;45043;-67
2022/09/01 01:35:30;;;;;;;;;12.33;12.00;;;;;23.63;49.69;101068.63;5126784;27;45214;-67
2022/09/01 01:37:57;;;;;;;;;9.00;9.00;;;;;23.60;49.96;101064.13;5123057;27;45157;-68
2022/09/01 01:40:22;;;;;;;;;8.00;8.00;;;;;23.49;49.89;101058.00;5121745;27;45972;-68
2022/09/01 01:42:51;;;;;;;;;10.33;9.00;;;;;23.58;49.95;101075.97;5117923;27;45281;-67
2022/09/01 01:45:19;;;;;;;;;12.33;8.00;;;;;23.57;50.21;101072.38;5125500;27;45222;-67
2022/09/01 01:47:51;;;;;;;;;12.00;8.00;;;;;23.52;50.50;101074.31;5119555;27;45001;-68
2022/09/01 01:50:20;;;;;;;;;11.00;7.33;;;;;23.47;50.81;101077.13;5123108;27;45189;-67
2022/09/01 01:52:46;;;;;;;;;12.67;10.67;;;;;23.41;50.58;101068.19;5114678;27;45299;-66
2022/09/01 01:55:11;;;;;;;;;8.00;6.00;;;;;23.33;50.82;101061.06;5118657;27;45267;-68
2022/09/01 01:57:48;;;;;;;;;11.33;11.33;;;;;23.36;51.09;101074.66;5119108;27;45235;-67
2022/09/01 02:00:18;;;;;;;;;4.33;4.00;;;;;23.31;51.14;101062.03;5118829;27;45575;-67
2022/09/01 02:02:51;;;;;;;;;9.00;9.00;;;;;23.39;51.07;101087.31;5123411;27;45379;-67
2022/09/01 02:05:23;;;;;;;;;8.67;8.67;;;;;23.36;51.33;101080.09;5117800;27;44943;-68
2022/09/01 02:08:02;;;;;;;;;11.00;11.00;;;;;23.17;51.32;101045.97;5116193;27;45243;-68
2022/09/01 02:10:34;;;;;;;;;11.33;9.00;;;;;23.31;51.42;101078.38;5115106;27;45369;-67
2022/09/01 02:13:06;;;;;;;;;12.33;8.67;;;;;23.33;51.26;101080.16;5112820;27;45778;-67
2022/09/01 02:15:38;;;;;;;;;8.00;8.00;;;;;23.29;51.45;101081.16;5116388;27;45224;-68
2022/09/01 02:18:05;;;;;;;;;10.00;7.67;;;;;23.26;51.53;101088.50;5115068;27;44962;-67
2022/09/01 02:20:31;;;;;;;;;9.00;9.00;;;;;23.20;51.38;101075.91;5116825;27;45166;-68
2022/09/01 02:22:57;;;;;;;;;7.67;7.00;;;;;23.20;51.53;101084.09;5120743;27;45676;-67
2022/09/01 02:25:23;;;;;;;;;11.00;9.00;;;;;23.23;51.73;101086.75;5122054;27;45119;-67
2022/09/01 02:27:52;;;;;;;;;8.33;8.33;;;;;23.23;51.63;101091.28;5116441;27;45172;-67
2022/09/01 02:30:17;;;;;;;;;9.67;9.67;;;;;23.24;51.82;101083.06;5123392;27;45095;-67
2022/09/01 02:32:43;;;;;;;;;8.67;8.00;;;;;23.25;51.71;101094.91;5145508;27;45154;-67
2022/09/01 02:35:08;;;;;;;;;9.33;9.33;;;;;23.17;52.05;101093.22;5128112;27;45011;-67
2022/09/01 02:37:38;;;;;;;;;11.33;9.00;;;;;23.12;52.11;101088.78;5113055;27;45077;-66
2022/09/01 02:40:05;;;;;;;;;11.00;9.33;;;;;23.11;52.08;101089.72;5128474;27;45964;-66
2022/09/01 02:42:31;;;;;;;;;10.00;10.00;;;;;23.09;52.19;101095.19;5121451;27;45750;-68
2022/09/01 02:44:57;;;;;;;;;16.00;12.33;;;;;23.07;52.12;101094.31;5118231;27;45067;-67
2022/09/01 02:47:25;;;;;;;;;10.00;8.00;;;;;23.05;52.48;101089.78;5114210;27;45178;-67
2022/09/01 02:49:51;;;;;;;;;8.67;8.67;;;;;22.95;52.66;101079.09;5115790;27;45642;-68
2022/09/01 02:52:19;;;;;;;;;12.67;12.67;;;;;22.99;52.32;101093.56;5120382;27;48269;-67
2022/09/01 02:54:47;;;;;;;;;13.33;11.00;;;;;22.95;52.55;101083.63;5115498;27;46078;-68
2022/09/01 02:57:13;;;;;;;;;6.00;6.00;;;;;22.92;52.63;101075.53;5115705;27;45348;-67
2022/09/01 02:59:40;;;;;;;;;9.00;8.00;;;;;22.80;52.82;101060.28;5122908;27;45168;-66
2022/09/01 03:02:07;;;;;;;;;7.33;7.33;;;;;22.87;52.60;101069.25;5124242;27;45399;-67
2022/09/01 03:04:33;;;;;;;;;9.33;9.33;;;;;22.87;52.82;101075.63;5124327;27;45125;-67
2022/09/01 03:07:00;;;;;;;;;12.67;8.33;;;;;22.70;52.53;101056.84;5119901;27;45200;-67
2022/09/01 03:09:25;;;;;;;;;13.67;9.00;;;;;22.70;52.79;101058.69;5116292;27;45882;-68
2022/09/01 03:11:52;;;;;;;;;13.33;11.00;;;;;22.82;52.70;101077.53;5116680;27;45060;-68
2022/09/01 03:14:19;;;;;;;;;11.33;10.00;;;;;22.82;52.76;101083.88;5117864;27;45570;-66
2022/09/01 03:16:44;;;;;;;;;11.67;10.67;;;;;22.82;53.07;101080.25;5116203;27;45089;-66
2022/09/01 03:19:10;;;;;;;;;10.67;7.33;;;;;22.73;52.93;101059.53;5122017;27;55021;-66
2022/09/01 03:21:41;;;;;;;;;12.67;10.00;;;;;22.63;52.98;101050.63;5129060;27;45093;-67
2022/09/01 03:24:09;;;;;;;;;12.33;9.00;;;;;22.77;52.93;101074.88;5122051;27;45152;-67
2022/09/01 03:26:35;;;;;;;;;7.67;6.00;;;;;22.76;53.02;101074.91;5121248;27;45256;-67
2022/09/01 03:29:01;;;;;;;;;11.33;11.00;;;;;22.75;53.01;101068.59;5120423;27;46281;-67
2022/09/01 03:31:27;;;;;;;;;11.00;8.67;;;;;22.77;53.12;101074.88;5129283;27;45492;-66
2022/09/01 03:33:56;;;;;;;;;12.00;8.33;;;;;22.79;52.84;101072.13;5121321;27;45333;-67
2022/09/01 03:36:23;;;;;;;;;12.33;9.33;;;;;22.82;52.83;101072.09;5117863;27;45086;-68
2022/09/01 03:38:50;;;;;;;;;8.67;8.67;;;;;22.64;52.89;101035.19;5118068;27;45211;-67
2022/09/01 03:41:18;;;;;;;;;14.67;8.67;;;;;22.79;52.82;101067.59;5142291;27;45121;-67
2022/09/01 03:43:45;;;;;;;;;10.00;10.00;;;;;22.72;52.72;101056.81;5117456;27;45455;-68
2022/09/01 03:46:15;;;;;;;;;9.67;8.33;;;;;22.78;52.96;101065.78;5120308;27;45103;-69
2022/09/01 03:48:41;;;;;;;;;11.33;9.67;;;;;22.62;52.97;101040.69;5116214;27;45083;-68
2022/09/01 03:51:08;;;;;;;;;15.33;8.67;;;;;22.77;52.83;101065.84;5119844;27;45461;-67
2022/09/01 03:53:37;;;;;;;;;13.00;9.33;;;;;22.76;52.95;101061.31;5114582;27;45857;-68
2022/09/01 03:56:04;;;;;;;;;14.67;9.33;;;;;22.63;52.94;101052.47;5116765;27;45146;-68
2022/09/01 03:58:29;;;;;;;;;6.67;6.67;;;;;22.71;53.00;101057.78;5120352;27;45100;-68
2022/09/01 04:00:59;;;;;;;;;9.33;8.67;;;;;22.69;53.38;101060.53;5115541;27;45126;-67
2022/09/01 04:03:29;;;;;;;;;10.33;8.00;;;;;22.68;53.19;101061.44;5117134;27;45256;-67
2022/09/01 04:05:55;;;;;;;;;9.00;7.33;;;;;22.58;53.04;101046.19;5119413;27;45162;-68
2022/09/01 04:08:26;;;;;;;;;10.00;9.00;;;;;22.66;53.29;101067.84;5117547;27;45540;-67
2022/09/01 04:10:53;;;;;;;;;11.00;8.67;;;;;22.19;53.14;100987.00;5119960;27;45261;-67
2022/09/01 04:13:20;;;;;;;;;10.67;10.67;;;;;22.61;53.25;101057.94;5117930;27;45063;-68
2022/09/01 04:15:46;;;;;;;;;9.00;9.00;;;;;22.60;53.34;101055.22;5122483;27;45214;-66
2022/09/01 04:18:19;;;;;;;;;8.00;8.00;;;;;22.50;53.22;101040.88;5112945;27;45677;-67
2022/09/01 04:20:47;;;;;;;;;10.33;8.00;;;;;22.51;53.24;101026.34;5134979;27;45250;-66
2022/09/01 04:23:32;;;;;;;;;8.67;8.33;;;;;22.61;53.16;101047.03;5121441;27;45039;-68
2022/09/01 04:26:10;;;;;;;;;9.33;9.33;;;;;22.61;53.01;101048.88;5119421;27;45220;-67
2022/09/01 04:28:47;;;;;;;;;12.33;8.00;;;;;22.53;53.02;101040.84;5118444;27;45681;-67
2022/09/01 04:31:18;;;;;;;;;11.00;9.00;;;;;22.60;52.98;101049.78;5119293;27;44996;-66
2022/09/01 04:33:45;;;;;;;;;7.00;6.33;;;;;22.47;52.78;101035.50;5121740;27;45327;-65
2022/09/01 04:36:27;;;;;;;;;7.67;7.67;;;;;22.50;53.23;101049.06;5122930;27;45228;-69
2022/09/01 04:38:56;;;;;;;;;10.00;9.67;;;;;22.40;53.36;101022.94;5121720;27;46673;-67
2022/09/01 04:41:24;;;;;;;;;8.33;8.00;;;;;22.52;52.93;101040.84;5114824;27;45381;-67
2022/09/01 04:43:51;;;;;;;;;7.67;7.67;;;;;22.40;53.09;101031.09;5116311;27;45204;-68
2022/09/01 04:46:18;;;;;;;;;7.33;6.00;;;;;22.50;53.01;101053.63;5112693;27;45129;-67
2022/09/01 04:48:44;;;;;;;;;12.00;11.00;;;;;22.52;53.02;101047.22;5117080;27;45643;-67
2022/09/01 04:51:14;;;;;;;;;8.67;7.00;;;;;22.51;53.14;101048.13;5116702;27;45187;-68
2022/09/01 04:53:42;;;;;;;;;12.67;10.00;;;;;22.38;53.15;101027.50;5115887;27;44892;-67
2022/09/01 04:56:10;;;;;;;;;10.00;8.67;;;;;22.35;52.80;101022.13;5120505;27;45132;-67
2022/09/01 04:58:36;;;;;;;;;8.33;7.00;;;;;22.46;52.81;101047.31;5122656;27;45728;-67
2022/09/01 05:01:12;;;;;;;;;11.33;9.00;;;;;22.46;52.71;101044.59;5120534;27;48379;-67
2022/09/01 05:03:37;;;;;;;;;15.00;7.67;;;;;22.41;52.67;101025.63;5128286;27;45088;-68
2022/09/01 05:06:03;;;;;;;;;11.33;10.00;;;;;22.13;52.75;100973.47;5123916;27;46029;-67
2022/09/01 05:08:29;;;;;;;;;6.67;6.67;;;;;22.52;52.64;101044.50;5117711;27;45339;-68
2022/09/01 05:10:55;;;;;;;;;9.00;8.00;;;;;22.53;52.80;101053.56;5117157;27;45272;-67
2022/09/01 05:13:22;;;;;;;;;10.33;9.00;;;;;22.51;52.73;101052.69;5116771;27;45084;-67
2022/09/01 05:16:03;;;;;;;;;7.67;7.00;;;;;22.52;52.65;101055.41;5116109;27;45240;-68
2022/09/01 05:18:28;;;;;;;;;14.00;8.33;;;;;22.55;52.68;101054.41;5113417;27;45140;-67
2022/09/01 05:20:54;;;;;;;;;10.67;9.00;;;;;22.42;52.84;101031.97;5119529;27;45183;-68
2022/09/01 05:23:20;;;;;;;;;12.00;7.33;;;;;22.45;52.75;101043.72;5114987;27;45310;-69
2022/09/01 05:25:48;;;;;;;;;17.33;15.33;;;;;22.49;52.92;101051.81;5116600;27;45842;-66
2022/09/01 05:28:17;;;;;;;;;14.00;9.67;;;;;22.43;53.12;101058.28;5119101;27;46559;-68
2022/09/01 05:30:44;;;;;;;;;15.67;13.67;;;;;22.45;52.94;101059.13;5116215;27;44752;-68
2022/09/01 05:33:15;;;;;;;;;13.67;12.33;;;;;22.47;53.13;101051.81;5119031;27;45168;-67
2022/09/01 05:35:50;;;;;;;;;12.67;10.67;;;;;22.51;52.88;101061.75;5113526;27;45000;-66
2022/09/01 05:38:17;;;;;;;;;10.00;9.00;;;;;22.52;52.90;101049.94;5118820;27;45661;-68
2022/09/01 05:40:43;;;;;;;;;27.00;15.67;;;;;22.50;53.09;101050.88;5123734;27;45299;-68
2022/09/01 05:43:11;;;;;;;;;11.33;10.33;;;;;22.32;52.95;101017.63;5117175;27;45103;-67
2022/09/01 05:45:40;;;;;;;;;12.33;11.33;;;;;22.54;53.09;101056.25;5116993;27;46115;-68
2022/09/01 05:48:08;;;;;;;;;7.33;7.33;;;;;22.54;52.85;101061.69;5115739;27;45509;-68
2022/09/01 05:50:34;;;;;;;;;10.67;9.00;;;;;22.50;52.94;101040.88;5111768;27;45339;-69
2022/09/01 05:52:59;;;;;;;;;9.33;9.33;;;;;22.54;52.81;101052.66;5111217;27;45138;-66
2022/09/01 05:55:26;;;;;;;;;12.67;11.00;;;;;22.59;52.93;101048.91;5121505;27;45142;-67
2022/09/01 05:57:52;;;;;;;;;13.67;10.33;;;;;22.62;52.68;101046.13;5118421;27;46157;-67
2022/09/01 06:00:19;;;;;;;;;11.67;9.00;;;;;22.53;52.32;101032.66;5115075;27;46221;-67
2022/09/01 06:02:44;;;;;;;;;11.33;10.00;;;;;22.67;52.27;101059.66;5116981;27;45289;-65
2022/09/01 06:05:14;;;;;;;;;12.33;11.00;;;;;22.55;52.27;101025.34;5123869;27;45210;-66
2022/09/01 06:07:41;;;;;;;;;8.33;8.33;;;;;22.71;52.07;101055.03;5119925;27;45279;-68
2022/09/01 06:10:07;;;;;;;;;16.33;14.00;;;;;22.75;52.21;101051.31;5117196;27;45461;-68
2022/09/01 06:12:33;;;;;;;;;11.67;9.00;;;;;22.71;52.05;101058.66;5120156;27;45280;-66
2022/09/01 06:14:58;;;;;;;;;12.33;11.00;;;;;22.68;52.00;101061.44;5119692;27;45147;-68
2022/09/01 06:17:27;;;;;;;;;12.33;10.67;;;;;22.69;52.27;101059.63;5114158;27;45761;-67
2022/09/01 06:19:55;;;;;;;;;10.00;8.33;;;;;22.67;52.12;101061.47;5128355;27;44977;-66
2022/09/01 06:22:22;;;;;;;;;9.33;9.33;;;;;22.67;52.03;101062.38;5126635;27;45121;-68
2022/09/01 06:24:50;;;;;;;;;18.00;13.00;;;;;22.38;52.39;101033.84;5120298;27;45297;-68
2022/09/01 06:27:19;;;;;;;;;13.00;10.00;;;;;22.50;52.33;101068.13;5115516;27;46297;-68
2022/09/01 06:29:53;;;;;;;;;10.33;9.33;;;;;22.17;52.25;101013.31;5116690;27;44942;-66
2022/09/01 06:32:19;;;;;;;;;9.00;8.00;;;;;22.58;52.04;101066.16;5120510;27;45350;-67
2022/09/01 06:34:48;;;;;;;;;13.33;11.67;;;;;22.55;51.84;101040.81;5123715;27;45207;-67
2022/09/01 06:37:14;;;;;;;;;10.67;8.00;;;;;22.61;51.95;101060.66;5113766;27;46535;-67
2022/09/01 06:39:40;;;;;;;;;7.67;7.67;;;;;22.59;51.91;101067.06;5117510;27;45141;-67
2022/09/01 06:42:08;;;;;;;;;13.33;8.33;;;;;22.45;52.13;101031.91;5117386;27;45386;-66
2022/09/01 06:44:34;;;;;;;;;11.00;9.33;;;;;22.48;51.88;101029.13;5107771;27;45400;-66
2022/09/01 06:46:59;;;;;;;;;13.00;9.67;;;;;22.58;52.06;101060.69;5097767;27;45376;-67
2022/09/01 06:49:31;;;;;;;;;8.33;7.00;;;;;22.56;52.14;101054.41;5098247;27;45589;-67
2022/09/01 06:51:57;;;;;;;;;12.00;10.67;;;;;22.70;51.88;101066.84;5096525;27;45465;-67
2022/09/01 06:54:24;;;;;;;;;9.00;9.00;;;;;22.60;51.68;101045.25;5109601;27;45441;-68
2022/09/01 06:56:49;;;;;;;;;7.33;7.33;;;;;22.48;51.65;101009.19;5103093;27;45967;-69
2022/09/01 06:59:15;;;;;;;;;11.33;10.00;;;;;22.79;51.60;101063.97;5108721;27;45711;-69
2022/09/01 07:01:40;;;;;;;;;10.33;10.33;;;;;22.77;51.47;101069.44;5112919;27;45109;-68
2022/09/01 07:04:06;;;;;;;;;12.33;10.33;;;;;22.72;51.39;101051.38;5099905;27;46766;-68
2022/09/01 07:06:31;;;;;;;;;13.00;9.67;;;;;22.81;51.52;101068.44;5100763;27;46031;-68
2022/09/01 07:09:00;;;;;;;;;10.00;8.33;;;;;22.84;51.60;101063.88;5109069;27;45442;-68
2022/09/01 07:11:28;;;;;;;;;15.33;9.00;;;;;22.82;51.51;101072.97;5100929;27;45438;-68
2022/09/01 07:13:57;;;;;;;;;12.33;9.00;;;;;22.88;51.64;101071.06;5108429;27;45621;-68
2022/09/01 07:16:25;;;;;;;;;10.33;10.00;;;;;22.76;51.33;101028.63;5120438;27;45804;-66
2022/09/01 07:18:53;;;;;;;;;11.67;9.33;;;;;23.07;51.21;101071.63;5104916;27;45481;-68
2022/09/01 07:21:18;;;;;;;;;8.00;7.33;;;;;22.97;51.36;101062.72;5104384;27;45322;-66
2022/09/01 07:23:45;;;;;;;;;8.00;7.00;;;;;22.85;51.43;101046.59;5106789;27;45412;-67
2022/09/01 07:26:16;;;;;;;;;12.00;9.00;;;;;23.02;51.36;101077.13;5103845;27;45471;-68
2022/09/01 07:28:43;;;;;;;;;13.67;11.67;;;;;22.99;51.51;101072.63;5101459;27;45483;-67
2022/09/01 07:31:19;;;;;;;;;12.67;10.67;;;;;22.64;51.49;101011.56;5098309;27;45664;-69
2022/09/01 07:33:47;;;;;;;;;18.67;17.33;;;;;22.98;51.47;101072.66;5105949;27;45529;-66
2022/09/01 07:36:13;;;;;;;;;17.67;10.33;;;;;23.01;51.40;101083.50;5105601;27;46185;-66
2022/09/01 07:38:39;;;;;;;;;8.33;7.67;;;;;23.04;51.32;101077.13;5113057;27;45499;-66
2022/09/01 07:41:04;;;;;;;;;10.00;9.00;;;;;23.02;51.31;101076.25;5099621;27;45529;-66
2022/09/01 07:43:31;;;;;;;;;16.33;13.67;;;;;22.96;51.83;101079.97;5100895;27;45493;-68
2022/09/01 07:45:58;;;;;;;;;8.33;8.33;;;;;22.96;51.53;101075.41;5110662;27;47208;-68
2022/09/01 07:48:27;;;;;;;;;11.33;11.33;;;;;23.02;51.71;101082.59;5101417;27;45260;-67
2022/09/01 07:50:55;;;;;;;;;11.00;10.33;;;;;23.07;51.42;101072.53;5098211;27;45622;-67
2022/09/01 07:53:31;;;;;;;;;22.33;17.67;;;;;23.12;51.76;101067.88;5108636;27;45760;-68
2022/09/01 07:56:07;;;;;;;;;16.00;11.67;;;;;23.24;51.15;101077.63;5104300;27;46153;-66
2022/09/01 07:58:33;;;;;;;;;8.33;8.33;;;;;23.22;50.83;101073.16;5099830;27;45592;-66
2022/09/01 08:01:01;;;;;;;;;13.33;13.33;;;;;23.21;50.86;101057.72;5096715;27;45489;-67
2022/09/01 08:03:28;;;;;;;;;17.33;8.33;;;;;23.36;50.55;101080.09;5098166;27;45474;-67
2022/09/01 08:05:59;;;;;;;;;11.33;9.00;;;;;23.30;50.94;101068.44;5103615;27;46989;-67
2022/09/01 08:08:25;;;;;;;;;16.67;9.33;;;;;23.40;50.78;101080.03;5099085;27;45498;-67
2022/09/01 08:10:50;;;;;;;;;12.67;10.33;;;;;23.34;50.62;101086.50;5098062;27;45484;-68
2022/09/01 08:13:16;;;;;;;;;14.33;12.00;;;;;23.35;50.40;101078.28;5102631;27;45395;-67
2022/09/01 08:15:42;;;;;;;;;7.33;7.33;;;;;23.46;50.20;101085.34;5103176;27;45591;-69
2022/09/01 08:18:08;;;;;;;;;13.00;12.67;;;;;23.51;50.12;101080.69;5103827;27;45933;-69
2022/09/01 08:20:36;;;;;;;;;12.67;12.00;;;;;23.46;49.73;101052.63;5101084;27;45489;-68
2022/09/01 08:23:02;;;;;;;;;11.00;11.00;;;;;23.65;50.03;101077.66;5098034;27;45670;-67
2022/09/01 08:25:29;;;;;;;;;9.33;9.33;;;;;23.57;49.45;101052.38;5098115;27;46597;-71
2022/09/01 08:27:55;;;;;;;;;10.00;9.00;;;;;23.81;49.37;101076.38;5099466;27;45647;-69
2022/09/01 08:30:21;;;;;;;;;14.00;11.33;;;;;23.90;49.57;101076.19;5102739;27;45518;-68
2022/09/01 08:32:46;;;;;;;;;13.33;10.33;;;;;23.97;49.03;101082.38;5097158;27;45536;-70
2022/09/01 08:35:15;;;;;;;;;10.33;10.33;;;;;24.01;48.99;101084.13;5100104;27;46877;-68
2022/09/01 08:37:41;;;;;;;;;18.67;11.67;;;;;24.02;48.51;101074.09;5094549;27;45630;-70
2022/09/01 08:40:09;;;;;;;;;16.67;14.00;;;;;23.98;48.48;101076.00;5099912;27;48422;-68
2022/09/01 08:42:51;;;;;;;;;12.33;10.67;;;;;24.20;48.16;101094.59;5101733;27;45790;-67
2022/09/01 08:45:52;;;;;;;;;11.33;9.33;;;;;24.21;47.88;101078.16;5098424;27;45542;-69
2022/09/01 08:48:33;;;;;;;;;8.67;7.67;;;;;24.33;47.36;101093.34;5095754;27;45451;-69
2022/09/01 08:51:09;;;;;;;;;14.33;14.33;;;;;24.22;48.15;101066.31;5094368;27;45463;-69
2022/09/01 08:53:46;;;;;;;;;13.33;12.33;;;;;24.24;47.71;101063.56;5108103;27;45558;-70
2022/09/01 08:56:14;;;;;;;;;11.67;11.00;;;;;24.36;47.48;101078.72;5118128;27;46291;-67
2022/09/01 08:58:39;;;;;;;;;16.67;13.67;;;;;24.43;47.50;101075.78;5118760;27;45186;-69
2022/09/01 09:01:26;;;;;;;;;14.67;12.67;;;;;24.59;47.79;101087.25;5115937;27;45090;-69
2022/09/01 09:04:23;;;;;;;;;16.67;12.00;;;;;24.65;46.89;101083.47;5111681;27;45465;-69
2022/09/01 09:07:12;;;;;;;;;18.00;13.33;;;;;24.81;47.05;101097.59;5120962;27;46532;-69
2022/09/01 09:10:04;;;;;;;;;13.00;12.00;;;;;24.93;46.16;101094.53;5119163;27;45054;-69
2022/09/01 09:12:50;;;;;;;;;13.33;13.33;;;;;25.04;46.36;101107.00;5114823;27;45312;-69
2022/09/01 09:15:24;;;;;;;;;9.67;9.33;;;;;25.20;46.28;101095.56;5119677;27;45186;-68
2022/09/01 09:18:05;;;;;;;;;13.00;12.33;;;;;25.15;45.52;101056.53;5115262;27;46102;-67
2022/09/01 09:20:31;;;;;;;;;10.67;9.00;;;;;25.45;45.59;101094.88;5103649;27;45402;-68
2022/09/01 09:22:56;;;;;;;;;10.00;9.00;;;;;25.45;45.01;101077.59;5107034;27;45473;-70
2022/09/01 09:25:23;;;;;;;;;11.00;9.00;;;;;25.66;44.75;101090.59;5113190;27;45161;-71
2022/09/01 09:27:49;;;;;;;;;13.67;11.00;;;;;25.75;44.71;101094.88;5116862;27;45386;-69
2022/09/01 09:30:26;;;;;;;;;17.33;17.33;;;;;25.84;44.68;101083.66;5117214;27;45134;-68
2022/09/01 09:33:03;;;;;;;;;12.00;11.67;;;;;25.71;44.10;101065.84;5118231;27;45178;-68
2022/09/01 09:35:38;;;;;;;;;13.67;9.00;;;;;25.96;44.42;101090.59;5120131;27;45426;-69
2022/09/01 09:38:18;;;;;;;;;17.00;14.33;;;;;26.09;44.18;101083.78;5118714;27;46459;-70
2022/09/01 09:41:04;;;;;;;;;16.67;13.00;;;;;26.25;43.89;101075.03;5110883;27;45143;-68
2022/09/01 09:43:34;;;;;;;;;17.00;15.00;;;;;26.29;43.18;101071.28;5118817;27;44952;-70
2022/09/01 09:46:20;;;;;;;;;12.00;10.00;;;;;26.28;43.49;101070.38;5095566;27;45679;-70
2022/09/01 09:48:45;;;;;;;;;17.00;13.00;;;;;26.19;43.46;101053.38;5106809;27;45450;-70
2022/09/01 09:51:19;;;;;;;;;9.33;9.33;;;;;26.20;43.33;101066.09;5098095;27;45592;-67
2022/09/01 09:53:44;;;;;;;;;13.33;12.00;;;;;26.23;43.42;101074.22;5099215;27;45774;-68
2022/09/01 09:56:21;;;;;;;;;10.33;10.33;;;;;26.26;43.75;101071.38;5098391;27;45495;-67
2022/09/01 09:58:47;;;;;;;;;10.67;10.67;;;;;26.30;43.50;101070.34;5103951;27;47048;-69
2022/09/01 10:01:21;;;;;;;;;13.67;10.67;;;;;26.33;43.31;101067.47;5098980;27;45258;-67
2022/09/01 10:03:55;;;;;;;;;13.33;12.00;;;;;26.07;43.28;101022.72;5110093;27;45408;-68
2022/09/01 10:06:40;;;;;;;;;10.00;10.00;;;;;26.34;43.12;101065.66;5100513;27;45589;-71
2022/09/01 10:09:25;;;;;;;;;12.33;10.33;;;;;26.26;43.45;101066.78;5099640;27;45636;-71
2022/09/01 10:11:57;;;;;;;;;11.33;11.33;;;;;26.11;43.34;101068.19;5104803;27;45473;-69
2022/09/01 10:14:45;;;;;;;;;10.33;9.33;;;;;26.07;43.58;101066.53;5102369;27;45475;-67
2022/09/01 10:17:14;;;;;;;;;9.00;9.00;;;;;26.04;43.66;101066.63;5106196;27;45559;-68
2022/09/01 10:19:49;;;;;;;;;12.67;11.67;;;;;26.10;43.47;101070.97;5101536;27;46188;-68
2022/09/01 10:22:15;;;;;;;;;20.00;17.67;;;;;26.13;43.22;101064.53;5106137;27;45464;-68
2022/09/01 10:24:40;;;;;;;;;14.00;12.67;;;;;26.23;43.34;101057.78;5111095;27;45537;-68
2022/09/01 10:27:19;;;;;;;;;12.33;10.33;;;;;26.21;42.97;101043.25;5113000;27;45478;-66
2022/09/01 10:29:51;;;;;;;;;15.00;14.67;;;;;26.39;42.55;101053.56;5100545;27;46401;-67
2022/09/01 10:32:28;;;;;;;;;13.00;11.67;;;;;26.44;42.62;101059.78;5106852;27;46180;-66
2022/09/01 10:34:54;;;;;;;;;15.00;13.00;;;;;26.39;42.56;101038.97;5104502;27;45529;-67
2022/09/01 10:37:22;;;;;;;;;14.00;11.00;;;;;26.36;42.56;101036.34;5102320;27;45439;-66
2022/09/01 10:40:27;;;;;;;;;13.67;10.33;;;;;26.53;42.34;101054.91;5106131;27;45626;-67
2022/09/01 10:43:31;;;;;;;;;12.33;10.00;;;;;26.66;41.93;101056.31;5104975;27;45368;-68
2022/09/01 10:45:56;;;;;;;;;11.00;11.00;;;;;26.74;41.56;101045.97;5111326;27;45579;-66
2022/09/01 10:48:32;;;;;;;;;10.33;9.00;;;;;26.85;41.60;101042.84;5096871;27;45675;-68
2022/09/01 10:51:26;;;;;;;;;12.33;9.00;;;;;26.91;41.27;101042.63;5104286;27;45428;-68
2022/09/01 10:53:54;;;;;;;;;11.00;9.00;;;;;26.90;41.29;101032.59;5099777;27;45399;-68
2022/09/01 10:56:21;;;;;;;;;10.33;10.33;;;;;27.07;40.85;101042.03;5120667;27;45324;-67
2022/09/01 10:59:14;;;;;;;;;15.67;14.67;;;;;27.17;40.58;101040.72;5107643;27;45551;-68
2022/09/01 11:01:40;;;;;;;;;13.33;12.00;;;;;27.27;40.12;101036.66;5111898;27;45530;-66
2022/09/01 11:04:11;;;;;;;;;9.33;6.67;;;;;27.38;39.73;101045.41;5097569;27;45452;-67
2022/09/01 11:07:01;;;;;;;;;9.67;8.00;;;;;27.49;39.75;101036.78;5105821;27;45451;-69
2022/09/01 11:09:46;;;;;;;;;9.33;8.33;;;;;27.74;39.31;101035.78;5108641;27;45465;-67
2022/09/01 11:12:29;;;;;;;;;11.00;9.67;;;;;27.83;39.06;101037.25;5101864;27;45680;-67
2022/09/01 11:15:01;;;;;;;;;11.00;11.00;;;;;28.01;39.10;101028.28;5096516;27;45637;-67
2022/09/01 11:17:36;;;;;;;;;9.00;6.67;;;;;28.05;38.21;101016.22;5102218;27;45292;-67
2022/09/01 11:20:26;;;;;;;;;9.33;8.00;;;;;28.09;38.06;101028.84;5107015;27;45305;-67
2022/09/01 11:23:02;;;;;;;;;12.67;9.33;;;;;27.88;38.07;100994.03;5097482;27;46137;-67
2022/09/01 11:25:33;;;;;;;;;11.33;9.00;;;;;27.98;37.17;101028.41;5100183;27;45427;-67
2022/09/01 11:28:14;;;;;;;;;10.33;8.00;;;;;27.97;37.74;101023.91;5104465;27;48059;-67
2022/09/01 11:30:51;;;;;;;;;9.67;7.00;;;;;28.04;37.32;101013.53;5114546;27;45617;-68
2022/09/01 11:33:38;;;;;;;;;9.00;6.33;;;;;28.13;37.24;101019.53;5108517;27;46115;-67